Time;durP1;ratioP1;P1;durP2;ratioP2;P2;SDS_P1;SDS_P2;PMS_P1;PMS_P2;Temp;Humidity;BMP_temperature;BMP_pressure;BME280_temperature;BME280_humidity;BME280_pressure;Samples;Min_cycle;Max_cycle;Signal;HPM_P1;HPM_P2
2022/07/08 00:02:12;;;;;;;2.00;0.70;;;;;;;26.89;37.05;102841.31;6246978;23;20004;-42
2022/07/08 00:04:41;;;;;;;3.42;0.55;;;;;;;27.05;37.17;102869.00;6221008;23;20005;-42
2022/07/08 00:07:10;;;;;;;1.63;0.70;;;;;;;27.04;37.03;102854.94;6247009;23;20011;-42
2022/07/08 00:09:39;;;;;;;1.70;0.80;;;;;;;26.96;37.14;102849.44;6219861;23;20399;-42
2022/07/08 00:12:07;;;;;;;1.70;0.73;;;;;;;27.01;37.24;102861.84;6220031;23;20014;-42
2022/07/08 00:14:36;;;;;;;3.00;0.60;;;;;;;27.07;37.18;102872.56;6220209;23;20451;-43
2022/07/08 00:17:05;;;;;;;0.90;0.60;;;;;;;27.04;37.13;102867.22;6246990;23;20055;-43
2022/07/08 00:19:33;;;;;;;2.47;0.75;;;;;;;27.02;37.05;102863.66;6247037;23;20004;-44
2022/07/08 00:22:02;;;;;;;0.93;0.60;;;;;;;26.99;37.31;102859.16;6246430;23;20371;-43
2022/07/08 00:24:30;;;;;;;2.42;0.65;;;;;;;26.98;37.06;102857.38;6220155;23;20427;-44
2022/07/08 00:26:59;;;;;;;1.70;0.90;;;;;;;26.83;37.33;102836.75;6195154;23;20008;-43
2022/07/08 00:29:27;;;;;;;2.20;1.42;;;;;;;26.95;37.17;102858.19;6246902;23;20004;-45
2022/07/08 00:31:56;;;;;;;1.90;0.80;;;;;;;26.81;37.12;102855.13;6246297;23;20015;-45
2022/07/08 00:34:24;;;;;;;0.88;0.70;;;;;;;26.90;37.27;102869.44;6245314;23;20436;-43
2022/07/08 00:36:53;;;;;;;2.13;0.65;;;;;;;26.91;37.28;102866.81;6194778;23;20004;-43
2022/07/08 00:39:21;;;;;;;3.75;1.00;;;;;;;26.88;37.18;102860.56;6244753;23;20012;-43
2022/07/08 00:41:50;;;;;;;2.05;0.80;;;;;;;26.85;37.36;102858.75;6244605;23;20057;-48
2022/07/08 00:44:18;;;;;;;1.20;0.65;;;;;;;26.85;37.15;102866.66;6246287;23;20028;-44
2022/07/08 00:46:47;;;;;;;2.22;0.73;;;;;;;26.90;37.09;102866.78;6246515;23;20482;-44
2022/07/08 00:49:15;;;;;;;1.38;0.70;;;;;;;26.89;37.29;102873.78;6246168;23;20004;-43
2022/07/08 00:51:45;;;;;;;0.90;0.60;;;;;;;26.86;37.24;102870.16;6245774;23;20019;-47
2022/07/08 00:54:15;;;;;;;1.77;0.93;;;;;;;26.80;37.20;102858.63;6245564;23;20072;-44
2022/07/08 00:56:44;;;;;;;0.80;0.60;;;;;;;26.84;36.96;102871.00;6219686;23;20001;-46
2022/07/08 00:59:12;;;;;;;1.58;0.82;;;;;;;26.86;37.26;102878.06;6247377;23;20007;-44
2022/07/08 01:01:41;;;;;;;1.45;0.80;;;;;;;26.88;37.29;102876.38;6245742;23;20001;-44
2022/07/08 01:04:09;;;;;;;1.45;0.80;;;;;;;26.86;37.14;102873.72;6245919;23;20000;-44
2022/07/08 01:06:38;;;;;;;0.90;0.55;;;;;;;26.85;37.15;102869.28;6219483;23;20412;-44
2022/07/08 01:09:06;;;;;;;2.10;0.63;;;;;;;26.87;37.13;102872.88;6246367;23;20079;-46
2022/07/08 01:11:34;;;;;;;0.68;0.60;;;;;;;26.80;37.28;102870.88;6245707;23;20000;-43
2022/07/08 01:14:03;;;;;;;2.60;0.70;;;;;;;26.75;37.44;102864.53;6246205;23;20335;-45
2022/07/08 01:16:32;;;;;;;1.20;0.65;;;;;;;26.70;37.40;102859.13;6246261;23;20030;-45
2022/07/08 01:19:00;;;;;;;2.28;0.82;;;;;;;26.72;37.30;102865.34;6245839;23;20055;-44
2022/07/08 01:21:28;;;;;;;2.28;1.00;;;;;;;26.72;37.46;102870.59;6245717;23;20015;-43
2022/07/08 01:23:57;;;;;;;2.33;1.00;;;;;;;26.74;37.15;102868.00;6246215;23;20007;-45
2022/07/08 01:26:25;;;;;;;0.73;0.60;;;;;;;26.78;37.23;102881.34;6245565;23;20004;-44
2022/07/08 01:28:55;;;;;;;1.25;0.80;;;;;;;26.76;37.17;102875.13;6219834;23;20062;-43
2022/07/08 01:31:23;;;;;;;2.10;0.77;;;;;;;26.73;37.21;102879.38;6245544;23;20420;-45
2022/07/08 01:33:52;;;;;;;1.83;0.73;;;;;;;26.79;36.97;102883.16;6245466;23;20048;-45
2022/07/08 01:36:20;;;;;;;1.08;0.68;;;;;;;26.71;37.15;102876.72;6245853;23;19996;-45
2022/07/08 01:38:49;;;;;;;3.63;0.70;;;;;;;26.73;37.07;102877.66;6245549;23;20015;-48
2022/07/08 01:41:17;;;;;;;0.80;0.60;;;;;;;26.62;37.24;102876.44;6245955;23;20008;-43
2022/07/08 01:43:46;;;;;;;1.83;0.93;;;;;;;26.58;37.53;102883.31;6245704;23;20185;-43
2022/07/08 01:46:14;;;;;;;2.35;0.80;;;;;;;26.65;37.33;102889.66;6245095;23;20007;-44
2022/07/08 01:48:43;;;;;;;1.60;0.70;;;;;;;26.68;37.21;102887.13;6245980;23;20004;-45
2022/07/08 01:51:12;;;;;;;1.77;0.65;;;;;;;26.66;37.43;102888.81;6245432;23;20008;-45
2022/07/08 01:53:40;;;;;;;2.15;0.90;;;;;;;26.57;37.15;102870.13;6246020;23;20010;-44
2022/07/08 01:56:09;;;;;;;3.67;0.90;;;;;;;26.73;37.18;102896.09;6219405;23;20058;-44
2022/07/08 01:58:37;;;;;;;2.05;0.80;;;;;;;26.71;37.23;102896.91;6245985;23;20432;-46
2022/07/08 02:01:06;;;;;;;2.40;1.13;;;;;;;26.70;37.11;102895.97;6245832;23;20004;-46
2022/07/08 02:03:34;;;;;;;2.15;0.77;;;;;;;26.60;37.29;102894.78;6246230;23;20011;-45
2022/07/08 02:06:03;;;;;;;1.60;0.75;;;;;;;26.54;37.16;102889.34;6246762;23;20341;-47
2022/07/08 02:08:32;;;;;;;2.83;0.90;;;;;;;26.53;37.51;102888.44;6247545;23;20004;-47
2022/07/08 02:13:47;;;;;;;2.35;0.80;;;;;;;26.47;37.23;102876.81;6241768;23;20076;-45
2022/07/08 02:16:16;;;;;;;2.05;1.15;;;;;;;26.53;37.50;102895.47;6247591;23;20011;-44
2022/07/08 02:18:44;;;;;;;3.42;0.68;;;;;;;26.46;37.30;102890.81;6248062;23;20011;-46
2022/07/08 02:21:13;;;;;;;3.95;0.85;;;;;;;26.38;37.53;102878.31;6246056;23;20015;-44
2022/07/08 02:23:42;;;;;;;1.95;0.75;;;;;;;26.27;37.87;102868.28;6246975;23;20427;-44
2022/07/08 02:26:10;;;;;;;0.98;0.60;;;;;;;26.34;37.64;102878.16;6247826;23;20046;-45
2022/07/08 02:28:39;;;;;;;0.85;0.85;;;;;;;26.29;37.69;102880.63;6220914;23;20027;-47
2022/07/08 02:31:07;;;;;;;3.50;1.02;;;;;;;26.28;37.53;102876.22;6247616;23;20004;-44
2022/07/08 02:33:36;;;;;;;4.95;1.00;;;;;;;26.28;37.75;102870.06;6221610;23;20071;-43
2022/07/08 02:36:05;;;;;;;0.90;0.73;;;;;;;26.34;37.53;102855.38;6247291;23;20000;-44
2022/07/08 02:38:33;;;;;;;3.58;0.88;;;;;;;26.30;37.50;102860.50;6246050;23;20083;-46
2022/07/08 02:41:02;;;;;;;2.10;0.80;;;;;;;26.23;37.47;102855.00;6247535;23;20027;-44
2022/07/08 02:43:30;;;;;;;1.33;0.65;;;;;;;26.17;37.73;102841.66;6245896;23;20054;-43
2022/07/08 02:45:59;;;;;;;2.15;0.85;;;;;;;26.24;37.58;102862.06;6247674;23;20076;-47
2022/07/08 02:48:27;;;;;;;1.35;0.75;;;;;;;26.31;37.70;102868.44;6221514;23;20028;-46
2022/07/08 02:50:56;;;;;;;2.78;1.10;;;;;;;26.20;37.74;102872.44;6247500;23;20428;-44
2022/07/08 02:53:24;;;;;;;2.10;0.90;;;;;;;26.15;37.97;102863.50;6220391;23;20008;-44
2022/07/08 02:55:53;;;;;;;2.70;1.17;;;;;;;26.17;37.86;102873.22;6247543;23;20062;-44
2022/07/08 02:58:21;;;;;;;3.45;1.02;;;;;;;26.19;37.50;102861.00;6247416;23;20496;-46
2022/07/08 03:00:50;;;;;;;4.28;1.00;;;;;;;26.21;37.78;102863.72;6247472;23;20007;-45
2022/07/08 03:03:19;;;;;;;1.27;1.05;;;;;;;26.17;37.68;102864.44;6247160;23;20431;-44
2022/07/08 03:05:47;;;;;;;2.40;0.98;;;;;;;26.16;37.30;102854.75;6247565;23;20000;-43
2022/07/08 03:08:16;;;;;;;1.73;0.73;;;;;;;26.22;37.50;102866.38;6246266;23;20091;-43
2022/07/08 03:10:44;;;;;;;1.98;0.85;;;;;;;26.15;37.91;102861.75;6247172;23;20339;-46
2022/07/08 03:13:13;;;;;;;1.52;0.93;;;;;;;26.20;37.52;102861.91;6246939;23;20008;-48
2022/07/08 03:15:41;;;;;;;1.00;0.60;;;;;;;25.94;37.82;102838.22;6247061;23;20005;-46
2022/07/08 03:18:10;;;;;;;0.98;0.73;;;;;;;26.04;38.12;102871.88;6247309;23;20375;-50
2022/07/08 03:20:38;;;;;;;2.05;0.98;;;;;;;25.99;37.95;102865.56;6247377;23;20087;-44
2022/07/08 03:23:08;;;;;;;2.50;0.80;;;;;;;25.88;38.61;102870.44;6247282;23;20057;-47
2022/07/08 03:25:36;;;;;;;3.10;1.30;;;;;;;25.86;38.22;102873.88;6220848;23;20001;-44
2022/07/08 03:28:05;;;;;;;2.15;1.00;;;;;;;25.92;38.42;102871.44;6246858;23;20335;-45
2022/07/08 03:30:33;;;;;;;2.70;0.80;;;;;;;25.95;38.31;102879.44;6247213;23;20075;-43
2022/07/08 03:33:02;;;;;;;1.08;0.98;;;;;;;26.05;38.16;102881.56;6246980;23;20343;-43
2022/07/08 03:35:30;;;;;;;1.40;1.00;;;;;;;25.97;37.87;102872.50;6246767;23;20082;-44
2022/07/08 03:37:59;;;;;;;5.25;0.98;;;;;;;25.97;38.08;102890.91;6246665;23;20000;-44
2022/07/08 03:43:15;;;;;;;1.85;0.90;;;;;;;25.94;38.17;102886.44;6236580;23;20008;-44
2022/07/08 03:45:43;;;;;;;1.35;0.80;;;;;;;26.00;38.18;102890.13;6245714;23;20008;-43
2022/07/08 03:48:12;;;;;;;1.58;0.70;;;;;;;25.98;38.26;102892.72;6247138;23;20000;-46
2022/07/08 03:50:40;;;;;;;1.08;0.75;;;;;;;25.94;38.21;102886.44;6246705;23;20008;-44
2022/07/08 03:53:09;;;;;;;2.80;1.02;;;;;;;25.90;38.27;102902.94;6246837;23;20011;-44
2022/07/08 03:55:37;;;;;;;1.77;0.90;;;;;;;25.88;38.12;102890.59;6247084;23;20046;-45
2022/07/08 03:58:06;;;;;;;3.28;0.85;;;;;;;25.90;38.53;102904.66;6246937;23;20000;-44
2022/07/08 04:00:35;;;;;;;2.45;1.08;;;;;;;25.93;38.18;102908.31;6245309;23;20008;-43
2022/07/08 04:03:03;;;;;;;1.38;0.90;;;;;;;25.88;38.47;102906.38;6246624;23;20070;-43
2022/07/08 04:05:32;;;;;;;1.23;0.82;;;;;;;25.83;38.14;102902.69;6245996;23;20006;-43
2022/07/08 04:08:00;;;;;;;0.80;0.73;;;;;;;25.89;38.22;102905.53;6246807;23;20015;-48
2022/07/08 04:10:29;;;;;;;1.58;1.30;;;;;;;25.93;38.23;102910.03;6219897;23;20074;-44
2022/07/08 04:12:57;;;;;;;4.63;1.00;;;;;;;25.93;37.97;102907.41;6246436;23;20420;-43
2022/07/08 04:15:26;;;;;;;1.23;0.90;;;;;;;25.86;38.42;102908.06;6246143;23;20038;-43
2022/07/08 04:17:55;;;;;;;2.05;1.00;;;;;;;25.83;38.29;102907.94;6246497;23;20437;-43
2022/07/08 04:20:23;;;;;;;2.00;1.00;;;;;;;25.81;38.15;102907.00;6246459;23;20004;-44
2022/07/08 04:22:52;;;;;;;2.40;1.00;;;;;;;25.83;38.25;102911.44;6246294;23;20032;-47
2022/07/08 04:25:21;;;;;;;1.35;0.90;;;;;;;25.73;38.46;102909.34;6220274;23;20446;-45
2022/07/08 04:27:49;;;;;;;1.95;0.98;;;;;;;25.72;38.36;102913.72;6245640;23;20075;-44
2022/07/08 04:30:18;;;;;;;1.80;1.02;;;;;;;25.76;38.29;102909.47;6246674;23;20005;-43
2022/07/08 04:32:46;;;;;;;2.75;1.00;;;;;;;25.74;38.29;102919.91;6246368;23;20008;-45
2022/07/08 04:35:15;;;;;;;1.45;1.00;;;;;;;25.70;38.40;102923.28;6246814;23;20420;-45
2022/07/08 04:37:43;;;;;;;1.67;0.90;;;;;;;25.73;38.39;102928.63;6246545;23;20050;-44
2022/07/08 04:40:12;;;;;;;1.05;0.73;;;;;;;25.79;38.33;102928.84;6245985;23;20008;-43
2022/07/08 04:42:40;;;;;;;1.92;0.95;;;;;;;25.78;38.25;102928.81;6246108;23;20035;-46
2022/07/08 04:45:08;;;;;;;3.85;1.02;;;;;;;25.77;38.42;102922.66;6246564;23;20079;-43
2022/07/08 04:47:37;;;;;;;1.98;0.90;;;;;;;25.76;38.29;102930.50;6219617;23;20035;-43
2022/07/08 04:50:05;;;;;;;2.38;1.00;;;;;;;25.82;38.25;102940.31;6246491;23;20004;-44
2022/07/08 04:52:33;;;;;;;4.72;0.90;;;;;;;25.82;38.12;102938.56;6246324;23;20113;-44
2022/07/08 04:55:02;;;;;;;2.03;1.02;;;;;;;25.78;38.23;102937.59;6219683;23;20423;-43
2022/07/08 04:57:32;;;;;;;3.25;0.85;;;;;;;25.77;38.16;102937.53;6246461;23;20011;-46
2022/07/08 05:00:01;;;;;;;2.05;0.85;;;;;;;25.73;38.17;102946.16;6246534;23;20015;-47
2022/07/08 05:02:30;;;;;;;2.28;0.80;;;;;;;25.67;38.20;102945.91;6219362;23;20069;-46
2022/07/08 05:04:58;;;;;;;1.83;1.00;;;;;;;25.64;38.13;102946.69;6245985;23;20003;-44
2022/07/08 05:07:27;;;;;;;2.20;1.00;;;;;;;25.73;38.25;102956.66;6246077;23;20000;-44
2022/07/08 05:09:55;;;;;;;1.15;0.55;;;;;;;25.72;38.18;102947.91;6245914;23;19996;-43
2022/07/08 05:12:24;;;;;;;3.30;1.00;;;;;;;25.75;38.16;102955.88;6245819;23;20012;-48
2022/07/08 05:14:53;;;;;;;1.83;0.85;;;;;;;25.74;38.21;102963.72;6246330;23;20007;-46
2022/07/08 05:17:21;;;;;;;1.73;1.05;;;;;;;25.75;38.21;102968.13;6245817;23;20453;-45
2022/07/08 05:19:50;;;;;;;1.50;0.98;;;;;;;25.75;38.27;102965.50;6219219;23;20011;-44
2022/07/08 05:22:18;;;;;;;2.35;1.00;;;;;;;25.71;38.17;102971.47;6246192;23;20008;-43
2022/07/08 05:24:47;;;;;;;0.75;0.70;;;;;;;25.71;38.27;102974.09;6246460;23;20075;-47
2022/07/08 05:27:15;;;;;;;2.33;0.80;;;;;;;25.57;38.28;102961.34;6245832;23;20012;-43
2022/07/08 05:29:44;;;;;;;1.33;0.73;;;;;;;25.70;38.16;102969.69;6245400;23;20031;-45
2022/07/08 05:32:12;;;;;;;0.93;0.70;;;;;;;25.77;38.36;102976.97;6245605;23;20343;-46
2022/07/08 05:34:41;;;;;;;1.52;0.80;;;;;;;25.77;38.22;102976.97;6245589;23;20062;-45
2022/07/08 05:37:10;;;;;;;0.77;0.60;;;;;;;25.81;38.31;102973.63;6245622;23;20004;-43
2022/07/08 05:39:39;;;;;;;1.33;0.73;;;;;;;25.84;38.06;102978.97;6219250;23;20012;-46
2022/07/08 05:42:09;;;;;;;1.85;0.90;;;;;;;25.85;38.27;102974.63;6245961;23;20382;-42
2022/07/08 05:44:38;;;;;;;2.22;0.98;;;;;;;25.88;38.05;102972.13;6219082;23;20328;-44
2022/07/08 05:47:08;;;;;;;2.45;1.00;;;;;;;25.90;37.95;102981.84;6245373;23;20003;-45
2022/07/08 05:49:37;;;;;;;4.20;0.98;;;;;;;25.91;38.14;102973.13;6246376;23;19996;-47
2022/07/08 05:52:06;;;;;;;0.98;0.77;;;;;;;26.02;38.05;102977.84;6244120;23;20012;-43
2022/07/08 05:54:35;;;;;;;1.25;0.93;;;;;;;26.07;37.84;102976.28;6245910;23;20004;-44
2022/07/08 05:57:03;;;;;;;0.82;0.63;;;;;;;26.08;37.69;102970.19;6244151;23;20360;-44
2022/07/08 05:59:32;;;;;;;1.40;1.17;;;;;;;26.13;38.01;102981.81;6245745;23;20008;-46
2022/07/08 06:02:01;;;;;;;1.20;0.80;;;;;;;26.15;38.03;102988.00;6245559;23;20008;-43
2022/07/08 06:04:29;;;;;;;2.67;1.05;;;;;;;26.19;38.01;102982.03;6245513;23;20004;-44
2022/07/08 06:06:58;;;;;;;1.75;0.75;;;;;;;26.33;37.95;102978.97;6245401;23;20498;-44
2022/07/08 06:09:26;;;;;;;1.27;0.65;;;;;;;26.45;37.70;102987.31;6245981;23;20027;-43
2022/07/08 06:11:55;;;;;;;0.90;0.68;;;;;;;26.47;37.59;102984.72;6245486;23;20004;-45
2022/07/08 06:14:23;;;;;;;2.95;0.93;;;;;;;26.42;38.04;102971.41;6246460;23;20138;-43
2022/07/08 06:16:51;;;;;;;1.90;0.70;;;;;;;26.45;37.94;102975.88;6218804;23;20331;-46
2022/07/08 06:19:20;;;;;;;1.02;0.80;;;;;;;26.52;37.92;102976.13;6218905;23;20331;-43
2022/07/08 06:21:49;;;;;;;2.35;1.17;;;;;;;26.59;37.74;102989.53;6245867;23;20008;-44
2022/07/08 06:24:18;;;;;;;1.60;0.70;;;;;;;26.70;37.71;102977.59;6245738;23;20012;-49
2022/07/08 06:26:46;;;;;;;1.38;0.68;;;;;;;26.74;37.72;102973.31;6245633;23;20000;-44
2022/07/08 06:29:15;;;;;;;1.85;1.00;;;;;;;26.87;37.82;102986.09;6245591;23;20313;-48
2022/07/08 06:31:44;;;;;;;0.98;0.80;;;;;;;26.93;37.23;102978.38;6245090;23;20331;-46
2022/07/08 06:34:12;;;;;;;0.90;0.60;;;;;;;26.97;37.33;102987.31;6245355;23;20089;-43
2022/07/08 06:36:40;;;;;;;1.33;0.90;;;;;;;26.97;37.61;102993.44;6218128;23;20026;-44
2022/07/08 06:39:08;;;;;;;0.93;0.52;;;;;;;27.01;37.44;102993.56;6245061;23;20083;-46
2022/07/08 06:41:37;;;;;;;1.48;0.90;;;;;;;26.91;37.39;102984.47;6245434;23;20312;-44
2022/07/08 06:44:06;;;;;;;1.05;0.65;;;;;;;27.03;37.66;102992.75;6243862;23;20004;-48
2022/07/08 06:46:35;;;;;;;1.88;0.73;;;;;;;26.88;37.56;102965.91;6245808;23;20431;-43
2022/07/08 06:49:03;;;;;;;3.17;0.65;;;;;;;27.05;37.60;102991.06;6245249;23;20000;-49
2022/07/08 06:51:32;;;;;;;2.38;0.85;;;;;;;27.05;37.61;103006.88;6246399;23;20083;-48
2022/07/08 06:54:44;;;;;;;3.05;0.98;;;;;;;27.10;37.47;102993.84;6247698;23;20008;-47
2022/07/08 06:56:47;;;;;;;3.92;0.80;;;;;;;27.17;37.34;103008.09;6219915;23;20003;-45
2022/07/08 06:59:16;;;;;;;1.65;1.10;;;;;;;27.18;37.30;103001.97;6245755;23;20036;-43
2022/07/08 07:01:45;;;;;;;5.05;1.38;;;;;;;27.17;37.20;103006.38;6247156;23;20015;-46
2022/07/08 07:04:13;;;;;;;1.70;0.80;;;;;;;27.25;37.37;103009.25;6247507;23;20411;-47
2022/07/08 07:06:41;;;;;;;1.45;0.88;;;;;;;27.27;37.43;103007.56;6247160;23;20011;-44
2022/07/08 07:09:09;;;;;;;2.33;1.10;;;;;;;27.26;37.32;103016.31;6220656;23;20069;-48
2022/07/08 07:11:38;;;;;;;2.33;0.88;;;;;;;27.24;37.48;103015.34;6220886;23;20031;-45
2022/07/08 07:14:05;;;;;;;1.73;1.05;;;;;;;27.33;37.34;103014.75;6247670;23;20004;-44
2022/07/08 07:16:34;;;;;;;3.83;1.00;;;;;;;27.37;37.14;103025.44;6246879;23;20004;-48
2022/07/08 07:19:03;;;;;;;2.05;0.90;;;;;;;27.37;37.06;103019.28;6247055;23;20008;-44
2022/07/08 07:21:31;;;;;;;4.78;0.82;;;;;;;27.47;36.83;103020.50;6246902;23;20079;-49
2022/07/08 07:23:59;;;;;;;2.83;1.00;;;;;;;27.47;36.88;103023.13;6247286;23;20007;-46
2022/07/08 07:26:28;;;;;;;3.58;1.05;;;;;;;27.50;36.78;103010.94;6247100;23;20000;-46
2022/07/08 07:28:57;;;;;;;2.63;1.40;;;;;;;27.51;36.83;103012.72;6247331;23;20001;-45
2022/07/08 07:31:25;;;;;;;2.47;1.00;;;;;;;27.55;36.70;103017.22;6246690;23;20004;-47
2022/07/08 07:33:54;;;;;;;1.38;0.80;;;;;;;27.54;36.82;103011.91;6247036;23;20058;-44
2022/07/08 07:36:21;;;;;;;2.13;0.88;;;;;;;27.48;36.83;102990.63;6246454;23;20334;-48
2022/07/08 07:38:50;;;;;;;5.80;1.00;;;;;;;27.58;36.94;103019.94;6247255;23;20004;-44
2022/07/08 07:41:18;;;;;;;4.95;1.35;;;;;;;27.62;36.93;103007.78;6246626;23;20091;-45
2022/07/08 07:43:46;;;;;;;2.70;0.82;;;;;;;27.59;36.93;103008.56;6247167;23;20285;-44
2022/07/08 07:46:14;;;;;;;2.83;1.25;;;;;;;27.66;36.89;103012.25;6246898;23;20027;-48
2022/07/08 07:48:43;;;;;;;1.30;0.85;;;;;;;27.67;36.83;103011.41;6247089;23;20008;-43
2022/07/08 07:51:10;;;;;;;1.92;0.88;;;;;;;27.74;36.79;103016.03;6246843;23;20438;-43
2022/07/08 07:53:39;;;;;;;1.30;0.70;;;;;;;27.80;36.58;103019.72;6246358;23;20032;-47
2022/07/08 07:56:08;;;;;;;3.10;1.20;;;;;;;27.80;36.15;103017.97;6246387;23;20028;-46
2022/07/08 07:58:38;;;;;;;1.63;0.90;;;;;;;27.87;36.18;103026.94;6246593;23;20004;-45
2022/07/08 08:01:06;;;;;;;6.82;0.85;;;;;;;27.87;36.00;103022.56;6246545;23;20007;-46
2022/07/08 08:03:35;;;;;;;6.13;1.20;;;;;;;27.71;36.23;103009.78;6246440;23;20428;-50
2022/07/08 08:06:04;;;;;;;1.63;0.90;;;;;;;27.87;36.08;103012.03;6246481;23;20339;-44
2022/07/08 08:08:33;;;;;;;3.03;1.05;;;;;;;27.93;36.16;103016.56;6246572;23;20042;-44
2022/07/08 08:11:02;;;;;;;4.00;1.20;;;;;;;27.94;36.11;103013.09;6246884;23;20011;-44
2022/07/08 08:13:31;;;;;;;2.13;1.02;;;;;;;27.99;36.13;103026.41;6246818;23;20342;-45
2022/07/08 08:15:59;;;;;;;5.32;1.23;;;;;;;27.97;36.36;103021.06;6246328;23;20015;-43
2022/07/08 08:18:26;;;;;;;4.78;1.10;;;;;;;28.01;36.40;103017.66;6246386;23;20007;-52
2022/07/08 08:20:54;;;;;;;3.45;1.73;;;;;;;28.03;36.50;103010.69;6246407;23;20038;-44
2022/07/08 08:23:22;;;;;;;10.07;2.40;;;;;;;28.00;36.67;102991.25;6245997;23;20491;-51
2022/07/08 08:25:51;;;;;;;9.98;3.45;;;;;;;28.05;36.94;103005.44;6219836;23;20000;-50
2022/07/08 08:28:19;;;;;;;11.88;3.70;;;;;;;28.11;37.04;103020.63;6246332;23;20486;-46
2022/07/08 08:30:48;;;;;;;9.38;3.00;;;;;;;28.15;36.75;103007.53;6246698;23;20007;-45
2022/07/08 08:33:16;;;;;;;7.20;2.80;;;;;;;28.20;36.63;103007.66;6246385;23;20091;-44
2022/07/08 08:35:45;;;;;;;13.77;3.80;;;;;;;28.24;36.25;103003.34;6246339;23;20011;-50
2022/07/08 08:38:13;;;;;;;16.88;4.55;;;;;;;28.20;36.98;103005.94;6246529;23;20032;-47
2022/07/08 08:40:43;;;;;;;12.57;4.35;;;;;;;28.25;37.18;102994.59;6245972;23;20087;-48
2022/07/08 08:43:12;;;;;;;14.88;4.30;;;;;;;28.21;36.98;102990.97;6244791;23;20493;-44
2022/07/08 08:45:40;;;;;;;14.95;4.10;;;;;;;28.24;37.48;102998.97;6246374;23;20004;-49
2022/07/08 08:48:09;;;;;;;9.13;2.72;;;;;;;28.31;36.98;102997.41;6246137;23;20019;-49
2022/07/08 08:51:02;;;;;;;5.68;2.42;;;;;;;28.35;36.58;103007.19;6219484;23;20285;-49
2022/07/08 08:53:30;;;;;;;8.38;3.05;;;;;;;28.27;36.47;102988.50;6231838;23;20011;-45
2022/07/08 08:56:00;;;;;;;6.28;2.13;;;;;;;28.40;36.34;103002.91;6246536;23;20054;-47
2022/07/08 08:58:29;;;;;;;5.88;2.05;;;;;;;28.40;36.27;102997.63;6246301;23;20011;-44
2022/07/08 09:00:57;;;;;;;6.40;1.90;;;;;;;28.38;36.44;102987.91;6219465;23;20008;-44
2022/07/08 09:03:25;;;;;;;5.35;2.10;;;;;;;28.37;36.52;103000.22;6246274;23;20008;-49
2022/07/08 09:05:54;;;;;;;4.25;1.50;;;;;;;28.38;36.64;103001.09;6246390;23;20015;-44
2022/07/08 09:08:21;;;;;;;3.80;1.70;;;;;;;28.46;36.24;102994.28;6245481;23;20011;-50
2022/07/08 09:10:50;;;;;;;5.03;1.90;;;;;;;28.45;36.19;102989.84;6246215;23;19996;-45
2022/07/08 09:13:19;;;;;;;3.13;1.35;;;;;;;28.34;36.13;102979.88;6245823;23;20447;-44
2022/07/08 09:15:50;;;;;;;3.80;1.33;;;;;;;28.40;36.46;102976.50;6246368;23;20055;-46
2022/07/08 09:18:20;;;;;;;2.65;1.23;;;;;;;28.48;36.00;102992.53;6245939;23;20475;-47
2022/07/08 09:20:52;;;;;;;3.25;1.15;;;;;;;28.47;35.99;102980.19;6246466;23;20451;-45
2022/07/08 09:23:24;;;;;;;4.03;1.50;;;;;;;28.50;36.28;102983.84;6219795;23;20045;-46
2022/07/08 09:25:54;;;;;;;3.03;1.00;;;;;;;28.55;36.03;102978.66;6246090;23;20007;-44
2022/07/08 09:28:43;;;;;;;2.13;0.93;;;;;;;28.54;35.62;102976.00;6246203;23;20011;-49
2022/07/08 09:31:13;;;;;;;4.40;1.00;;;;;;;28.59;35.75;102975.25;6246327;23;20004;-50
2022/07/08 09:33:42;;;;;;;2.08;0.80;;;;;;;28.62;35.71;102988.53;6244502;23;20004;-52
2022/07/08 09:36:11;;;;;;;2.15;1.10;;;;;;;28.62;35.42;102988.53;6218389;23;20008;-50
2022/07/08 09:38:41;;;;;;;2.63;1.10;;;;;;;28.61;35.51;102986.75;6219403;23;20010;-49
2022/07/08 09:41:10;;;;;;;2.83;0.95;;;;;;;28.61;35.89;102997.31;6244104;23;20055;-49
2022/07/08 09:43:50;;;;;;;2.25;1.10;;;;;;;28.68;35.71;103002.72;6244571;23;20317;-47
2022/07/08 09:46:20;;;;;;;3.55;1.40;;;;;;;28.71;35.71;102997.53;6245965;23;20075;-44
2022/07/08 09:48:49;;;;;;;3.72;1.38;;;;;;;28.73;35.21;102990.53;6245644;23;20008;-44
2022/07/08 09:51:18;;;;;;;5.65;1.08;;;;;;;28.73;35.06;102994.09;6244119;23;20075;-46
2022/07/08 09:53:47;;;;;;;3.83;1.17;;;;;;;28.68;35.36;102985.16;6218974;23;20015;-54
2022/07/08 09:56:16;;;;;;;4.32;1.83;;;;;;;28.69;36.27;102994.88;6246018;23;20327;-48
2022/07/08 09:58:44;;;;;;;3.53;1.30;;;;;;;28.73;35.94;102993.19;6246013;23;20022;-43
2022/07/08 10:01:13;;;;;;;3.72;1.30;;;;;;;28.73;36.01;102991.44;6219581;23;20012;-43
2022/07/08 10:03:42;;;;;;;2.40;1.20;;;;;;;28.74;36.21;102987.97;6246018;23;20387;-46
2022/07/08 10:06:11;;;;;;;8.88;2.25;;;;;;;28.80;36.21;102987.22;6219122;23;20007;-48
2022/07/08 10:08:40;;;;;;;2.83;1.30;;;;;;;28.82;36.29;102993.44;6244605;23;20000;-47
2022/07/08 10:11:09;;;;;;;3.00;1.05;;;;;;;28.83;36.42;102987.28;6245742;23;20004;-48
2022/07/08 10:13:38;;;;;;;5.05;1.33;;;;;;;28.81;36.45;102986.34;6245744;23;20007;-47
2022/07/08 10:16:10;;;;;;;2.33;0.90;;;;;;;28.91;36.39;102982.19;6245603;23;20004;-53
2022/07/08 10:18:42;;;;;;;3.60;1.20;;;;;;;28.90;36.38;102977.75;6246001;23;20382;-47
2022/07/08 10:21:14;;;;;;;5.13;1.10;;;;;;;28.88;36.35;102979.47;6244568;23;20053;-45
2022/07/08 10:23:46;;;;;;;3.22;0.90;;;;;;;28.91;36.42;102975.19;6245943;23;20023;-48
2022/07/08 10:26:18;;;;;;;5.65;0.90;;;;;;;28.86;36.42;102971.53;6246763;23;20010;-45
2022/07/08 10:28:46;;;;;;;4.28;1.40;;;;;;;28.94;36.55;102984.91;6247631;23;20424;-48
2022/07/08 10:31:25;;;;;;;5.47;1.13;;;;;;;28.98;36.59;102983.22;6246424;23;20064;-44
2022/07/08 10:34:00;;;;;;;4.45;1.10;;;;;;;29.01;36.67;102992.13;6248270;23;20022;-44
2022/07/08 10:36:28;;;;;;;2.38;1.23;;;;;;;29.04;36.89;102988.66;6247369;23;20011;-45
2022/07/08 10:38:57;;;;;;;4.78;1.85;;;;;;;29.03;36.96;102989.53;6247682;23;20049;-44
2022/07/08 10:41:26;;;;;;;4.13;1.10;;;;;;;28.99;37.15;102979.72;6247749;23;20395;-43
2022/07/08 10:43:57;;;;;;;3.15;1.10;;;;;;;29.10;36.92;102997.63;6246578;23;20023;-43
2022/07/08 10:46:27;;;;;;;2.35;1.15;;;;;;;29.10;36.73;102986.19;6247769;23;20039;-51
2022/07/08 10:48:57;;;;;;;3.70;1.10;;;;;;;29.12;36.99;102979.19;6247546;23;20004;-46
2022/07/08 10:51:26;;;;;;;3.38;1.10;;;;;;;29.12;36.76;102984.47;6245847;23;20486;-43
2022/07/08 10:53:56;;;;;;;3.22;1.15;;;;;;;29.10;36.70;102979.13;6247374;23;20374;-44
2022/07/08 10:57:02;;;;;;;1.85;0.90;;;;;;;29.08;36.72;102974.69;6247459;23;20004;-47
2022/07/08 10:59:31;;;;;;;3.90;1.30;;;;;;;29.13;36.49;102967.72;6210027;23;20439;-44
2022/07/08 11:02:12;;;;;;;2.78;1.25;;;;;;;29.19;36.15;102975.81;6245842;23;20065;-45
2022/07/08 11:04:41;;;;;;;3.10;1.10;;;;;;;29.23;35.74;102974.09;6221259;23;20000;-47
2022/07/08 11:07:18;;;;;;;3.42;1.05;;;;;;;29.18;35.73;102966.09;6247318;23;20107;-44
2022/07/08 11:09:49;;;;;;;4.70;1.20;;;;;;;29.21;36.00;102971.44;6247690;23;20027;-45
2022/07/08 11:12:19;;;;;;;2.65;1.23;;;;;;;29.23;35.89;102960.91;6245841;23;20004;-44
2022/07/08 11:14:49;;;;;;;3.92;1.00;;;;;;;29.16;36.19;102965.16;6247242;23;20015;-44
2022/07/08 11:17:18;;;;;;;2.58;0.98;;;;;;;29.12;35.99;102963.31;6247915;23;20470;-42
2022/07/08 11:19:48;;;;;;;4.03;1.08;;;;;;;29.07;35.99;102959.69;6247558;23;20451;-43
2022/07/08 11:22:17;;;;;;;2.75;0.93;;;;;;;29.16;35.58;102961.63;6247153;23;19996;-47
2022/07/08 11:24:47;;;;;;;3.10;0.90;;;;;;;29.16;35.01;102954.59;6247501;23;20335;-43
2022/07/08 11:27:15;;;;;;;3.50;1.10;;;;;;;29.39;34.29;102959.53;6220319;23;20327;-43
2022/07/08 11:29:49;;;;;;;2.92;1.35;;;;;;;29.19;32.70;102948.50;6247168;23;20134;-45
2022/07/08 11:32:20;;;;;;;2.92;1.10;;;;;;;28.91;33.04;102946.13;6247248;23;20008;-43
2022/07/08 11:34:49;;;;;;;1.80;0.90;;;;;;;28.90;33.12;102940.78;6247406;23;20321;-44
2022/07/08 11:37:17;;;;;;;1.88;0.90;;;;;;;29.03;33.18;102931.38;6247199;23;20074;-44
2022/07/08 11:39:46;;;;;;;2.47;0.73;;;;;;;29.15;33.52;102936.06;6245224;23;20012;-45